Time;durP1;ratioP1;P1;durP2;ratioP2;P2;SDS_P1;SDS_P2;PMS_P1;PMS_P2;Temp;Humidity;BMP_temperature;BMP_pressure;BME280_temperature;BME280_humidity;BME280_pressure;Samples;Min_cycle;Max_cycle;Signal;HPM_P1;HPM_P2
2023/01/05 00:00:49;;;;;;;35.00;6.63;;;;;;;;;;5030999;28;20041;-66
2023/01/05 00:03:14;;;;;;;42.43;6.57;;;;;;;;;;5055719;28;20094;-66
2023/01/05 00:05:40;;;;;;;44.33;7.73;;;;;;;;;;5061445;28;20093;-66
2023/01/05 00:08:06;;;;;;;56.13;9.17;;;;;;;;;;5068238;28;20048;-66
2023/01/05 00:24:25;;;;;;;47.20;8.10;;;;;;;;;;5068361;28;20056;-66
2023/01/05 00:26:51;;;;;;;51.23;9.60;;;;;;;;;;5067390;28;20117;-66
2023/01/05 00:29:17;;;;;;;44.23;8.00;;;;;;;;;;5068663;28;20048;-66
2023/01/05 00:31:43;;;;;;;36.63;6.73;;;;;;;;;;5061726;28;20059;-66
2023/01/05 00:34:09;;;;;;;44.37;6.50;;;;;;;;;;5048405;28;20094;-65
2023/01/05 00:36:35;;;;;;;50.60;7.87;;;;;;;;;;5058905;28;20257;-65
2023/01/05 00:39:01;;;;;;;39.27;6.53;;;;;;;;;;5068254;28;20055;-65
2023/01/05 00:41:27;;;;;;;36.37;6.33;;;;;;;;;;5068347;28;20044;-65
2023/01/05 00:43:53;;;;;;;36.77;8.10;;;;;;;;;;5068441;28;20517;-65
2023/01/05 00:46:19;;;;;;;38.60;7.57;;;;;;;;;;5062722;28;20052;-65
2023/01/05 00:48:45;;;;;;;46.77;8.00;;;;;;;;;;5047315;28;20052;-65
2023/01/05 00:51:11;;;;;;;39.63;6.87;;;;;;;;;;5047233;28;20053;-65
2023/01/05 00:53:37;;;;;;;50.83;8.30;;;;;;;;;;5048458;28;20561;-65
2023/01/05 00:56:06;;;;;;;40.50;7.70;;;;;;;;;;5051918;28;20053;-66
2023/01/05 00:58:34;;;;;;;43.90;6.57;;;;;;;;;;5051713;28;20059;-66
2023/01/05 01:01:01;;;;;;;42.37;7.20;;;;;;;;;;5050505;28;20434;-65
2023/01/05 01:03:28;;;;;;;52.10;9.33;;;;;;;;;;5051609;28;20037;-66
2023/01/05 01:05:58;;;;;;;44.40;8.20;;;;;;;;;;5051716;28;20045;-65
2023/01/05 01:08:24;;;;;;;44.97;7.23;;;;;;;;;;5050206;28;20056;-65
2023/01/05 01:10:50;;;;;;;47.23;7.67;;;;;;;;;;5051787;28;20040;-66
2023/01/05 01:13:16;;;;;;;55.43;10.23;;;;;;;;;;5051588;28;20411;-66
2023/01/05 01:15:42;;;;;;;35.97;6.47;;;;;;;;;;5051403;28;20400;-66
2023/01/05 01:18:08;;;;;;;48.37;9.37;;;;;;;;;;5050440;28;20047;-65
2023/01/05 01:20:36;;;;;;;43.10;7.37;;;;;;;;;;5051171;28;20041;-65
2023/01/05 01:23:03;;;;;;;43.83;7.00;;;;;;;;;;5052449;28;20102;-66
2023/01/05 01:25:31;;;;;;;48.80;7.63;;;;;;;;;;5052359;28;21399;-65
2023/01/05 01:27:57;;;;;;;44.90;7.80;;;;;;;;;;5052279;28;20136;-66
2023/01/05 01:30:23;;;;;;;38.47;6.87;;;;;;;;;;5067226;28;20106;-66
2023/01/05 01:32:49;;;;;;;38.43;7.90;;;;;;;;;;5052626;28;20041;-65
2023/01/05 01:35:15;;;;;;;52.67;8.63;;;;;;;;;;5052125;28;20052;-65
2023/01/05 01:37:41;;;;;;;34.33;6.33;;;;;;;;;;5052302;28;20087;-66
2023/01/05 01:40:08;;;;;;;47.70;8.47;;;;;;;;;;5052343;28;20045;-65
2023/01/05 01:42:34;;;;;;;41.60;7.03;;;;;;;;;;5051868;28;20044;-66
2023/01/05 01:45:01;;;;;;;40.27;6.37;;;;;;;;;;5063169;28;20048;-66
2023/01/05 01:47:34;;;;;;;39.33;6.40;;;;;;;;;;5049941;28;20049;-66
2023/01/05 01:50:05;;;;;;;41.47;7.50;;;;;;;;;;5051426;28;20044;-65
2023/01/05 01:52:34;;;;;;;41.77;6.63;;;;;;;;;;5068794;28;20102;-66
2023/01/05 01:55:01;;;;;;;43.33;8.63;;;;;;;;;;5070791;28;20071;-65
2023/01/05 01:57:28;;;;;;;45.10;8.93;;;;;;;;;;5070083;28;20059;-66
2023/01/05 01:59:54;;;;;;;38.43;6.50;;;;;;;;;;5071577;28;20414;-66
2023/01/05 02:02:21;;;;;;;34.00;5.97;;;;;;;;;;5071002;28;20053;-66
2023/01/05 02:04:47;;;;;;;50.57;9.17;;;;;;;;;;5071705;28;20123;-66
2023/01/05 02:07:15;;;;;;;34.97;6.67;;;;;;;;;;5071046;28;20090;-66
2023/01/05 02:09:41;;;;;;;38.27;6.47;;;;;;;;;;5070426;28;20388;-66
2023/01/05 02:12:22;;;;;;;40.30;6.47;;;;;;;;;;5069967;28;20052;-66
2023/01/05 02:14:57;;;;;;;48.27;8.37;;;;;;;;;;5052650;28;20119;-66
2023/01/05 02:17:26;;;;;;;40.03;6.13;;;;;;;;;;5051401;28;20053;-67
2023/01/05 02:20:11;;;;;;;34.90;6.47;;;;;;;;;;5033193;28;20132;-66
2023/01/05 02:22:40;;;;;;;27.37;5.60;;;;;;;;;;5050312;28;20045;-66
2023/01/05 02:25:23;;;;;;;28.43;5.67;;;;;;;;;;5051120;28;20049;-66
2023/01/05 02:27:52;;;;;;;35.75;7.25;;;;;;;;;;5067404;28;20040;-67
2023/01/05 02:30:21;;;;;;;35.90;5.50;;;;;;;;;;5071394;28;20048;-66
2023/01/05 02:32:59;;;;;;;33.03;5.83;;;;;;;;;;5071065;28;20048;-64
2023/01/05 02:35:40;;;;;;;36.33;6.70;;;;;;;;;;5070772;28;20521;-64
2023/01/05 02:38:10;;;;;;;43.40;7.43;;;;;;;;;;5070943;28;20170;-63
2023/01/05 02:40:39;;;;;;;40.03;6.63;;;;;;;;;;5067951;28;20040;-63
2023/01/05 02:43:05;;;;;;;42.93;6.90;;;;;;;;;;5050679;28;20048;-63
2023/01/05 02:45:31;;;;;;;35.60;5.60;;;;;;;;;;5057139;28;20060;-63
2023/01/05 02:47:57;;;;;;;37.67;6.10;;;;;;;;;;5069469;28;20506;-63
2023/01/05 02:50:29;;;;;;;37.07;6.60;;;;;;;;;;5069264;28;20486;-64
2023/01/05 02:53:02;;;;;;;33.37;5.70;;;;;;;;;;5070859;28;20071;-63
2023/01/05 02:55:48;;;;;;;36.00;5.63;;;;;;;;;;5066251;28;20044;-63
2023/01/05 02:58:20;;;;;;;37.43;6.60;;;;;;;;;;5059940;28;20051;-63
2023/01/05 03:00:50;;;;;;;39.70;7.37;;;;;;;;;;5070457;28;20048;-66
2023/01/05 03:03:23;;;;;;;40.47;7.50;;;;;;;;;;5064688;28;20129;-66
2023/01/05 03:05:53;;;;;;;52.53;7.18;;;;;;;;;;5070262;28;20178;-66
2023/01/05 03:08:23;;;;;;;31.10;5.97;;;;;;;;;;5070121;28;20131;-66
2023/01/05 03:13:43;;;;;;;34.67;6.67;;;;;;;;;;5050516;28;20088;-66
2023/01/05 03:16:11;;;;;;;25.77;5.73;;;;;;;;;;5050391;28;20095;-66
2023/01/05 03:19:34;;;;;;;43.87;6.70;;;;;;;;;;5048662;28;20098;-66
2023/01/05 03:21:24;;;;;;;35.73;6.67;;;;;;;;;;5050075;28;20511;-66
2023/01/05 03:35:32;;;;;;;32.70;7.20;;;;;;;;;;5049696;28;20057;-66
2023/01/05 03:38:10;;;;;;;39.70;7.03;;;;;;;;;;5053281;28;20048;-66
2023/01/05 03:40:38;;;;;;;31.87;6.07;;;;;;;;;;5069203;28;20055;-66
2023/01/05 03:43:04;;;;;;;33.73;5.77;;;;;;;;;;5056710;28;20048;-66
2023/01/05 03:45:42;;;;;;;37.27;5.83;;;;;;;;;;5064562;28;20100;-66
2023/01/05 03:48:08;;;;;;;33.80;5.37;;;;;;;;;;5068654;28;20135;-66
2023/01/05 03:50:35;;;;;;;31.47;6.17;;;;;;;;;;5069827;28;20051;-66
2023/01/05 03:53:01;;;;;;;33.27;5.27;;;;;;;;;;5063508;28;20041;-65
2023/01/05 03:55:27;;;;;;;36.90;5.73;;;;;;;;;;5049263;28;20084;-66
2023/01/05 03:57:53;;;;;;;33.00;5.73;;;;;;;;;;5049688;28;20073;-66
2023/01/05 04:00:20;;;;;;;28.40;5.47;;;;;;;;;;5048566;28;20088;-66
2023/01/05 04:02:46;;;;;;;29.17;5.50;;;;;;;;;;5049819;28;20049;-66
2023/01/05 04:05:12;;;;;;;30.47;5.90;;;;;;;;;;5049550;28;20526;-66
2023/01/05 04:07:38;;;;;;;35.47;5.67;;;;;;;;;;5031770;28;20045;-66
2023/01/05 04:10:04;;;;;;;30.87;6.23;;;;;;;;;;5049218;28;20044;-65
2023/01/05 04:12:30;;;;;;;29.70;5.43;;;;;;;;;;5055951;28;20407;-65
2023/01/05 04:14:56;;;;;;;40.93;5.67;;;;;;;;;;5068426;28;20047;-65
2023/01/05 04:17:22;;;;;;;40.03;8.47;;;;;;;;;;5069699;28;20049;-66
2023/01/05 04:19:48;;;;;;;25.40;5.67;;;;;;;;;;5068422;28;20055;-65
2023/01/05 04:22:14;;;;;;;34.53;5.93;;;;;;;;;;5065384;28;20403;-65
2023/01/05 04:24:40;;;;;;;31.33;7.13;;;;;;;;;;5062030;28;20043;-65
2023/01/05 04:27:06;;;;;;;30.33;5.77;;;;;;;;;;5069704;28;20045;-65
2023/01/05 04:29:32;;;;;;;32.07;4.97;;;;;;;;;;5071467;28;20048;-66
2023/01/05 04:31:58;;;;;;;36.33;5.13;;;;;;;;;;5074067;28;20051;-66
2023/01/05 04:34:24;;;;;;;36.90;5.73;;;;;;;;;;5071892;28;20048;-66
2023/01/05 04:36:50;;;;;;;31.33;5.27;;;;;;;;;;5073268;28;20041;-65
2023/01/05 04:39:16;;;;;;;29.87;5.33;;;;;;;;;;5072157;28;20532;-65
2023/01/05 04:41:42;;;;;;;33.20;5.23;;;;;;;;;;5072712;28;20048;-65
2023/01/05 04:44:08;;;;;;;35.70;5.87;;;;;;;;;;5072849;28;20052;-65
2023/01/05 04:46:36;;;;;;;34.37;6.60;;;;;;;;;;5072930;28;20045;-66
2023/01/05 04:49:06;;;;;;;30.93;6.00;;;;;;;;;;5072438;28;20051;-66
2023/01/05 04:51:33;;;;;;;31.00;5.10;;;;;;;;;;5071674;28;20052;-64
2023/01/05 04:53:59;;;;;;;28.80;4.83;;;;;;;;;;5053188;28;20041;-64
2023/01/05 04:56:25;;;;;;;31.43;5.13;;;;;;;;;;5052934;28;20045;-65
2023/01/05 04:58:51;;;;;;;33.90;5.47;;;;;;;;;;5053320;28;20400;-64
2023/01/05 05:01:17;;;;;;;34.07;5.83;;;;;;;;;;5051832;28;20406;-64
2023/01/05 05:03:43;;;;;;;30.20;6.93;;;;;;;;;;5052613;28;20127;-64
2023/01/05 05:06:10;;;;;;;43.43;7.30;;;;;;;;;;5067403;28;20052;-65
2023/01/05 05:08:36;;;;;;;35.27;4.50;;;;;;;;;;5058360;28;20513;-65
2023/01/05 05:11:02;;;;;;;38.53;5.77;;;;;;;;;;5072486;28;20628;-65
2023/01/05 05:13:28;;;;;;;39.10;6.90;;;;;;;;;;5057234;28;20041;-64
2023/01/05 05:15:54;;;;;;;25.57;5.00;;;;;;;;;;5052515;28;20442;-64
2023/01/05 05:18:23;;;;;;;26.17;5.10;;;;;;;;;;5052551;28;20048;-64
2023/01/05 05:20:50;;;;;;;30.30;6.63;;;;;;;;;;5052109;28;20052;-65
2023/01/05 05:23:16;;;;;;;32.53;6.07;;;;;;;;;;5052448;28;20288;-64
2023/01/05 05:25:42;;;;;;;35.73;6.33;;;;;;;;;;5052617;28;20048;-64
2023/01/05 05:28:08;;;;;;;37.73;6.57;;;;;;;;;;5050614;28;20048;-65
2023/01/05 05:30:34;;;;;;;37.90;6.63;;;;;;;;;;5052411;28;20045;-65
2023/01/05 05:33:00;;;;;;;37.03;6.23;;;;;;;;;;5052169;28;20045;-65
2023/01/05 05:35:26;;;;;;;32.60;6.43;;;;;;;;;;5065081;28;20044;-65
2023/01/05 05:37:52;;;;;;;40.57;6.50;;;;;;;;;;5072005;28;20044;-65
2023/01/05 05:40:18;;;;;;;27.60;6.10;;;;;;;;;;5064217;28;20040;-65
2023/01/05 05:42:45;;;;;;;31.77;5.30;;;;;;;;;;5070166;28;20175;-65
2023/01/05 05:45:11;;;;;;;26.27;5.27;;;;;;;;;;5069374;28;20131;-65
2023/01/05 05:47:37;;;;;;;29.60;6.37;;;;;;;;;;5071398;28;20049;-65
2023/01/05 05:50:03;;;;;;;31.77;5.60;;;;;;;;;;5056496;28;20206;-65
2023/01/05 05:52:29;;;;;;;31.97;5.37;;;;;;;;;;5049189;28;20064;-65
2023/01/05 05:54:55;;;;;;;35.40;5.27;;;;;;;;;;5049522;28;20465;-65
2023/01/05 05:57:21;;;;;;;36.30;6.33;;;;;;;;;;5049033;28;20048;-65
2023/01/05 05:59:47;;;;;;;28.40;6.00;;;;;;;;;;5047970;28;20057;-65
2023/01/05 06:02:13;;;;;;;34.50;5.43;;;;;;;;;;5049032;28;20098;-64
2023/01/05 06:04:39;;;;;;;30.23;6.40;;;;;;;;;;5049230;28;20060;-65
2023/01/05 06:07:05;;;;;;;37.53;7.00;;;;;;;;;;5050375;28;20056;-65
2023/01/05 06:09:31;;;;;;;39.10;5.70;;;;;;;;;;5051069;28;20041;-65
2023/01/05 06:11:57;;;;;;;39.37;6.20;;;;;;;;;;5049301;28;20049;-65
2023/01/05 06:14:23;;;;;;;35.00;6.13;;;;;;;;;;5069105;28;20521;-64
2023/01/05 06:16:51;;;;;;;38.73;5.77;;;;;;;;;;5064679;28;20037;-65
2023/01/05 06:19:17;;;;;;;29.30;5.03;;;;;;;;;;5049453;28;20182;-65
2023/01/05 06:21:43;;;;;;;33.97;6.30;;;;;;;;;;5059474;28;20047;-65
2023/01/05 06:24:09;;;;;;;32.37;4.70;;;;;;;;;;5070628;28;20048;-65
2023/01/05 06:26:35;;;;;;;33.80;5.33;;;;;;;;;;5070567;28;20056;-65
2023/01/05 06:29:01;;;;;;;25.23;6.00;;;;;;;;;;5064366;28;20077;-64
2023/01/05 06:31:28;;;;;;;27.33;5.07;;;;;;;;;;5057712;28;20080;-65
2023/01/05 06:33:53;;;;;;;41.03;6.80;;;;;;;;;;5070754;28;20037;-65
2023/01/05 06:36:20;;;;;;;32.67;5.90;;;;;;;;;;5059175;28;20501;-65
2023/01/05 06:38:46;;;;;;;28.00;4.63;;;;;;;;;;5050984;28;20469;-65
2023/01/05 06:41:12;;;;;;;37.47;5.13;;;;;;;;;;5050868;28;20044;-65
2023/01/05 06:43:38;;;;;;;28.53;5.77;;;;;;;;;;5050621;28;20037;-66
2023/01/05 06:46:04;;;;;;;34.20;5.60;;;;;;;;;;5050267;28;20111;-65
2023/01/05 06:48:30;;;;;;;33.57;5.97;;;;;;;;;;5049694;28;20048;-66
2023/01/05 06:50:56;;;;;;;32.60;5.27;;;;;;;;;;5050401;28;20048;-65
2023/01/05 06:53:22;;;;;;;26.93;4.90;;;;;;;;;;5049142;28;20408;-64
2023/01/05 06:55:48;;;;;;;26.33;5.17;;;;;;;;;;5050085;28;20084;-65
2023/01/05 06:58:16;;;;;;;30.60;6.13;;;;;;;;;;5054472;28;20119;-64
2023/01/05 07:00:42;;;;;;;24.93;5.27;;;;;;;;;;5069935;28;20177;-65
2023/01/05 07:03:10;;;;;;;26.30;5.00;;;;;;;;;;5068676;28;20048;-65
2023/01/05 07:05:36;;;;;;;21.33;4.47;;;;;;;;;;5069508;28;20139;-64
2023/01/05 07:08:02;;;;;;;25.10;4.67;;;;;;;;;;5068874;28;20139;-64
2023/01/05 07:10:29;;;;;;;38.27;5.57;;;;;;;;;;5061591;28;20041;-65
2023/01/05 07:12:55;;;;;;;22.67;4.30;;;;;;;;;;5057704;28;20049;-64
2023/01/05 07:15:21;;;;;;;24.90;4.30;;;;;;;;;;5049079;28;20131;-65
2023/01/05 07:17:47;;;;;;;22.87;4.40;;;;;;;;;;5049952;28;20081;-65
2023/01/05 07:20:13;;;;;;;31.53;4.87;;;;;;;;;;5049751;28;20531;-64
2023/01/05 07:22:39;;;;;;;29.03;4.20;;;;;;;;;;5048241;28;20059;-64
2023/01/05 07:25:05;;;;;;;25.87;5.50;;;;;;;;;;5050625;28;20045;-65
2023/01/05 07:27:31;;;;;;;30.30;5.67;;;;;;;;;;5056108;28;20044;-64
2023/01/05 07:29:57;;;;;;;26.47;4.90;;;;;;;;;;5057784;28;20398;-65
2023/01/05 07:32:23;;;;;;;29.03;5.00;;;;;;;;;;5063148;28;20075;-65
2023/01/05 07:34:49;;;;;;;33.40;5.53;;;;;;;;;;5062280;28;20052;-65
2023/01/05 07:37:15;;;;;;;20.30;3.97;;;;;;;;;;5066974;28;20044;-65
2023/01/05 07:39:41;;;;;;;23.43;4.20;;;;;;;;;;5066622;28;20412;-64
2023/01/05 07:42:07;;;;;;;25.87;4.23;;;;;;;;;;5062831;28;20052;-64
2023/01/05 07:44:33;;;;;;;25.43;5.10;;;;;;;;;;5052205;28;20045;-64
2023/01/05 07:47:00;;;;;;;22.20;4.20;;;;;;;;;;5067914;28;20564;-64
2023/01/05 07:49:28;;;;;;;38.57;5.70;;;;;;;;;;5069822;28;20084;-64
2023/01/05 07:51:54;;;;;;;29.93;5.47;;;;;;;;;;5063219;28;20094;-64
2023/01/05 07:54:20;;;;;;;35.00;7.10;;;;;;;;;;5052373;28;20053;-64
2023/01/05 07:56:46;;;;;;;25.30;5.73;;;;;;;;;;5069048;28;20127;-65
2023/01/05 07:59:14;;;;;;;26.83;5.67;;;;;;;;;;5062656;28;20048;-64
2023/01/05 08:01:43;;;;;;;30.03;4.87;;;;;;;;;;5062544;28;20052;-64
2023/01/05 08:04:09;;;;;;;25.00;5.80;;;;;;;;;;5066797;28;20532;-65
2023/01/05 08:06:35;;;;;;;28.50;4.73;;;;;;;;;;5065560;28;20053;-65
2023/01/05 08:10:27;;;;;;;32.60;6.73;;;;;;;;;;5048743;28;20049;-65
2023/01/05 08:11:49;;;;;;;29.20;5.47;;;;;;;;;;5067501;28;20491;-65
2023/01/05 08:14:15;;;;;;;35.33;5.67;;;;;;;;;;5068197;28;20163;-64
2023/01/05 08:16:41;;;;;;;29.53;6.13;;;;;;;;;;5066417;28;20066;-65
2023/01/05 08:19:08;;;;;;;32.73;6.20;;;;;;;;;;5067204;28;20143;-65
2023/01/05 08:21:34;;;;;;;29.50;5.40;;;;;;;;;;5067102;28;20044;-64
2023/01/05 08:24:00;;;;;;;38.20;5.60;;;;;;;;;;5068178;28;20090;-65
2023/01/05 08:26:26;;;;;;;31.30;5.90;;;;;;;;;;5068119;28;20045;-65
2023/01/05 08:28:53;;;;;;;31.33;6.13;;;;;;;;;;5066523;28;20068;-65
2023/01/05 08:31:21;;;;;;;27.37;5.43;;;;;;;;;;5068773;28;20066;-64
2023/01/05 08:33:47;;;;;;;27.83;4.83;;;;;;;;;;5057941;28;20047;-64
2023/01/05 08:36:15;;;;;;;34.13;5.30;;;;;;;;;;5067323;28;20052;-64
2023/01/05 08:38:47;;;;;;;27.63;5.70;;;;;;;;;;5068761;28;20149;-65
2023/01/05 08:41:23;;;;;;;25.40;4.80;;;;;;;;;;5068645;28;20052;-64
2023/01/05 08:43:55;;;;;;;21.83;4.27;;;;;;;;;;5068736;28;20052;-65
2023/01/05 08:46:22;;;;;;;28.83;6.37;;;;;;;;;;5066766;28;20177;-65
2023/01/05 08:48:52;;;;;;;34.37;6.13;;;;;;;;;;5065257;28;20491;-64
2023/01/05 08:51:19;;;;;;;33.20;5.47;;;;;;;;;;5063150;28;20037;-65
2023/01/05 08:53:45;;;;;;;31.63;6.83;;;;;;;;;;5068258;28;20124;-64
2023/01/05 08:56:11;;;;;;;29.17;5.37;;;;;;;;;;5068706;28;20192;-64
2023/01/05 08:58:38;;;;;;;24.07;4.00;;;;;;;;;;5067311;28;20172;-65
2023/01/05 09:01:11;;;;;;;42.10;5.40;;;;;;;;;;5068555;28;20062;-64
2023/01/05 09:03:37;;;;;;;28.65;5.30;;;;;;;;;;5050556;28;20498;-65
2023/01/05 09:06:04;;;;;;;25.47;5.23;;;;;;;;;;5048495;28;20049;-65
2023/01/05 09:08:30;;;;;;;21.67;4.47;;;;;;;;;;5048235;28;20135;-64
2023/01/05 09:11:05;;;;;;;28.77;5.13;;;;;;;;;;5047340;28;20110;-65
2023/01/05 09:13:31;;;;;;;40.53;5.90;;;;;;;;;;5048605;28;20041;-65
2023/01/05 09:15:57;;;;;;;38.10;7.27;;;;;;;;;;5050666;28;20059;-65
2023/01/05 09:18:23;;;;;;;28.10;6.07;;;;;;;;;;5050187;28;20159;-64
2023/01/05 09:20:58;;;;;;;28.17;4.77;;;;;;;;;;5049976;28;20058;-64
2023/01/05 09:23:24;;;;;;;25.27;5.03;;;;;;;;;;5051847;28;20041;-65
2023/01/05 09:25:50;;;;;;;23.47;5.57;;;;;;;;;;5066608;28;20041;-64
2023/01/05 09:28:16;;;;;;;31.80;4.97;;;;;;;;;;5068775;28;20040;-64
2023/01/05 09:30:42;;;;;;;25.53;4.43;;;;;;;;;;5055873;28;20057;-64
2023/01/05 09:33:08;;;;;;;23.63;4.63;;;;;;;;;;5066591;28;20079;-64
2023/01/05 09:35:36;;;;;;;24.23;5.47;;;;;;;;;;5068705;28;20567;-64
2023/01/05 09:38:02;;;;;;;24.57;4.80;;;;;;;;;;5068884;28;20054;-65
2023/01/05 09:40:30;;;;;;;35.30;6.20;;;;;;;;;;5070064;28;20120;-64
2023/01/05 09:42:56;;;;;;;27.27;4.37;;;;;;;;;;5054260;28;20434;-65
2023/01/05 09:45:25;;;;;;;30.40;4.40;;;;;;;;;;5064350;28;20118;-64
2023/01/05 09:47:52;;;;;;;29.53;4.90;;;;;;;;;;5070144;28;20079;-65
2023/01/05 09:50:19;;;;;;;25.17;4.87;;;;;;;;;;5069246;28;20085;-64
2023/01/05 09:52:47;;;;;;;30.27;5.33;;;;;;;;;;5066259;28;20495;-64
2023/01/05 09:55:17;;;;;;;27.33;5.10;;;;;;;;;;5068744;28;20062;-64
2023/01/05 09:57:57;;;;;;;27.37;5.47;;;;;;;;;;5066952;28;20182;-65
2023/01/05 10:00:24;;;;;;;29.77;4.90;;;;;;;;;;5048776;28;20059;-65
2023/01/05 10:02:53;;;;;;;24.20;4.87;;;;;;;;;;5048920;28;20041;-64
2023/01/05 10:05:20;;;;;;;20.67;4.03;;;;;;;;;;5048262;28;20099;-65
2023/01/05 10:08:03;;;;;;;24.70;5.60;;;;;;;;;;5048455;28;20593;-65
2023/01/05 10:10:43;;;;;;;19.25;3.92;;;;;;;;;;5059246;28;20162;-65
2023/01/05 10:13:18;;;;;;;25.43;4.20;;;;;;;;;;5067052;28;20051;-64
2023/01/05 10:15:46;;;;;;;23.67;3.93;;;;;;;;;;5060220;28;20055;-64
2023/01/05 10:18:14;;;;;;;22.93;3.83;;;;;;;;;;5061028;28;20147;-65
2023/01/05 10:20:39;;;;;;;27.43;4.73;;;;;;;;;;5070408;28;20047;-65
2023/01/05 10:23:18;;;;;;;26.00;6.07;;;;;;;;;;5057926;28;20135;-64
2023/01/05 10:25:48;;;;;;;23.27;4.37;;;;;;;;;;5060232;28;20055;-64
2023/01/05 10:28:37;;;;;;;14.13;3.97;;;;;;;;;;5069597;28;20083;-65
2023/01/05 10:31:08;;;;;;;22.23;4.13;;;;;;;;;;5059309;28;20492;-64
2023/01/05 10:33:48;;;;;;;33.63;6.00;;;;;;;;;;5052943;28;20048;-64
2023/01/05 10:36:33;;;;;;;27.60;4.00;;;;;;;;;;5047261;28;20478;-64
2023/01/05 10:39:10;;;;;;;22.77;4.03;;;;;;;;;;5060676;28;20055;-64
2023/01/05 10:41:50;;;;;;;20.23;4.17;;;;;;;;;;5053045;28;20051;-65
2023/01/05 10:44:31;;;;;;;21.50;3.90;;;;;;;;;;5050552;28;20041;-64
2023/01/05 10:46:57;;;;;;;22.73;4.53;;;;;;;;;;5067011;28;20291;-65
2023/01/05 10:49:29;;;;;;;18.63;4.00;;;;;;;;;;5057407;28;20061;-65
2023/01/05 10:51:57;;;;;;;20.80;3.80;;;;;;;;;;5068724;28;20406;-64
2023/01/05 10:54:36;;;;;;;28.17;5.27;;;;;;;;;;5051357;28;20049;-64
2023/01/05 10:57:22;;;;;;;24.20;4.20;;;;;;;;;;5060923;28;20052;-64
2023/01/05 10:59:55;;;;;;;20.50;4.03;;;;;;;;;;5045289;28;20045;-64
2023/01/05 11:02:21;;;;;;;26.73;4.00;;;;;;;;;;5048619;28;20166;-64
2023/01/05 11:04:48;;;;;;;23.50;3.53;;;;;;;;;;5050161;28;20041;-64
2023/01/05 11:07:14;;;;;;;26.63;4.80;;;;;;;;;;5049685;28;20128;-64
2023/01/05 11:09:40;;;;;;;35.23;5.17;;;;;;;;;;5059324;28;20133;-65
2023/01/05 11:12:15;;;;;;;22.97;4.47;;;;;;;;;;5069176;28;20040;-64
2023/01/05 11:14:42;;;;;;;28.87;4.13;;;;;;;;;;5069174;28;20041;-65
2023/01/05 11:17:15;;;;;;;20.57;3.63;;;;;;;;;;5063231;28;20586;-64
2023/01/05 11:19:44;;;;;;;17.95;4.35;;;;;;;;;;5046795;28;20052;-64
2023/01/05 11:22:31;;;;;;;23.80;5.43;;;;;;;;;;5047363;28;20053;-64
2023/01/05 11:25:12;;;;;;;24.23;4.10;;;;;;;;;;5047305;28;20037;-64
2023/01/05 11:27:38;;;;;;;22.47;4.70;;;;;;;;;;5048525;28;20084;-65
2023/01/05 11:30:16;;;;;;;27.33;4.40;;;;;;;;;;5047993;28;20053;-64
2023/01/05 11:32:43;;;;;;;26.73;4.97;;;;;;;;;;5048161;28;20063;-64
2023/01/05 11:35:24;;;;;;;24.97;4.27;;;;;;;;;;5048266;28;20045;-64
2023/01/05 11:37:50;;;;;;;25.00;4.27;;;;;;;;;;5048360;28;20515;-64
2023/01/05 11:40:18;;;;;;;21.27;4.27;;;;;;;;;;5047229;28;20049;-64
2023/01/05 11:42:44;;;;;;;20.67;4.30;;;;;;;;;;5048145;28;20045;-64
2023/01/05 11:45:23;;;;;;;21.03;4.30;;;;;;;;;;5048151;28;20139;-63
2023/01/05 11:47:49;;;;;;;21.87;4.40;;;;;;;;;;5058976;28;20437;-64
2023/01/05 11:50:23;;;;;;;28.23;4.43;;;;;;;;;;5067680;28;20342;-64
2023/01/05 11:52:51;;;;;;;20.73;4.20;;;;;;;;;;5066318;28;20040;-64
2023/01/05 11:55:21;;;;;;;21.73;4.53;;;;;;;;;;5068193;28;20048;-64
2023/01/05 11:57:48;;;;;;;21.00;3.73;;;;;;;;;;5068440;28;20045;-64
2023/01/05 12:00:23;;;;;;;19.43;3.47;;;;;;;;;;5068185;28;20472;-64
2023/01/05 12:02:52;;;;;;;21.40;3.90;;;;;;;;;;5048626;28;20060;-64
2023/01/05 12:05:21;;;;;;;29.87;4.83;;;;;;;;;;5048145;28;20081;-64
2023/01/05 12:07:52;;;;;;;31.20;4.47;;;;;;;;;;5048307;28;20131;-64
2023/01/05 12:10:30;;;;;;;27.60;5.17;;;;;;;;;;5049305;28;20047;-64
2023/01/05 12:13:07;;;;;;;27.03;4.80;;;;;;;;;;5048377;28;20057;-65
2023/01/05 12:15:36;;;;;;;32.37;6.37;;;;;;;;;;5046030;28;20053;-65
2023/01/05 12:18:26;;;;;;;32.07;6.53;;;;;;;;;;5048220;28;20167;-65
2023/01/05 12:21:07;;;;;;;36.20;6.03;;;;;;;;;;5048153;28;20048;-65
2023/01/05 12:23:39;;;;;;;40.60;6.20;;;;;;;;;;5047970;28;20049;-65
2023/01/05 12:26:24;;;;;;;28.47;6.20;;;;;;;;;;5058987;28;20052;-65
2023/01/05 12:28:57;;;;;;;32.13;6.70;;;;;;;;;;5047884;28;20652;-65
2023/01/05 12:31:23;;;;;;;39.67;5.88;;;;;;;;;;5047749;28;20056;-65
2023/01/05 12:33:52;;;;;;;34.77;6.80;;;;;;;;;;5047825;28;20080;-65
2023/01/05 12:36:30;;;;;;;37.23;7.30;;;;;;;;;;5046283;28;20064;-65
2023/01/05 12:39:02;;;;;;;29.07;5.90;;;;;;;;;;5046570;28;20048;-65
2023/01/05 12:41:28;;;;;;;32.17;6.70;;;;;;;;;;5048794;28;20053;-65
2023/01/05 12:44:04;;;;;;;33.27;5.50;;;;;;;;;;5047090;28;20041;-65
2023/01/05 12:46:42;;;;;;;37.57;6.67;;;;;;;;;;5046198;28;20075;-65
2023/01/05 12:49:10;;;;;;;38.83;6.30;;;;;;;;;;5047524;28;20511;-65
2023/01/05 12:51:41;;;;;;;35.63;6.23;;;;;;;;;;5049590;28;20485;-65
2023/01/05 12:54:09;;;;;;;34.17;5.90;;;;;;;;;;5051819;28;20142;-65
2023/01/05 12:56:38;;;;;;;37.83;6.47;;;;;;;;;;5051312;28;20071;-65
2023/01/05 12:59:07;;;;;;;30.03;6.53;;;;;;;;;;5051161;28;20056;-65
2023/01/05 13:01:36;;;;;;;27.57;5.20;;;;;;;;;;5051368;28;20450;-65
2023/01/05 13:04:03;;;;;;;30.60;5.50;;;;;;;;;;5050916;28;20048;-65
2023/01/05 13:06:33;;;;;;;38.23;5.63;;;;;;;;;;5055108;28;20491;-65
2023/01/05 13:09:01;;;;;;;24.70;4.60;;;;;;;;;;5066644;28;20040;-65
2023/01/05 13:11:35;;;;;;;28.50;4.93;;;;;;;;;;5056831;28;20475;-65
2023/01/05 13:14:16;;;;;;;30.73;5.40;;;;;;;;;;5061971;28;20037;-65
2023/01/05 13:16:45;;;;;;;28.77;5.13;;;;;;;;;;5056539;28;20471;-65
2023/01/05 13:19:11;;;;;;;34.57;5.30;;;;;;;;;;5067009;28;20460;-64
2023/01/05 13:21:39;;;;;;;34.73;5.33;;;;;;;;;;5067844;28;20048;-65
2023/01/05 13:24:08;;;;;;;31.53;5.40;;;;;;;;;;5068320;28;20044;-65
2023/01/05 13:26:36;;;;;;;30.13;5.90;;;;;;;;;;5070384;28;20453;-64
2023/01/05 13:29:02;;;;;;;30.43;5.90;;;;;;;;;;5069908;28;20048;-65
2023/01/05 13:31:31;;;;;;;29.73;6.53;;;;;;;;;;5070222;28;20194;-64
2023/01/05 13:34:16;;;;;;;25.07;5.40;;;;;;;;;;5052225;28;20393;-64
2023/01/05 13:36:45;;;;;;;43.67;6.90;;;;;;;;;;5069391;28;20084;-65
2023/01/05 13:39:38;;;;;;;36.27;6.27;;;;;;;;;;5046006;28;20400;-65
2023/01/05 13:42:10;;;;;;;32.25;5.72;;;;;;;;;;5061860;28;20136;-65
2023/01/05 13:44:45;;;;;;;31.17;6.37;;;;;;;;;;5069771;28;20510;-65
2023/01/05 13:47:40;;;;;;;29.23;5.43;;;;;;;;;;5069152;28;20052;-65
2023/01/05 13:50:05;;;;;;;;;;;;;;;;;;5051018;28;20103;-65
2023/01/05 13:52:51;;;;;;;37.33;6.97;;;;;;;;;;5069472;28;20321;-65
2023/01/05 13:55:18;;;;;;;35.03;5.27;;;;;;;;;;5069142;28;20052;-65
2023/01/05 13:57:48;;;;;;;35.00;6.37;;;;;;;;;;5061676;28;20430;-65
2023/01/05 14:00:32;;;;;;;33.23;5.27;;;;;;;;;;5069096;28;20090;-64
2023/01/05 14:03:06;;;;;;;34.03;5.77;;;;;;;;;;5069291;28;20044;-65
2023/01/05 14:05:34;;;;;;;33.40;5.17;;;;;;;;;;5067054;28;20056;-64
2023/01/05 14:08:02;;;;;;;33.20;5.23;;;;;;;;;;5054695;28;20071;-65
2023/01/05 14:10:29;;;;;;;41.23;6.90;;;;;;;;;;5064660;28;20049;-65
2023/01/05 14:12:56;;;;;;;35.43;6.50;;;;;;;;;;5067049;28;20064;-64
2023/01/05 14:15:32;;;;;;;30.97;5.33;;;;;;;;;;5068973;28;20564;-64
2023/01/05 14:18:00;;;;;;;38.47;5.73;;;;;;;;;;5062629;28;20043;-64
2023/01/05 14:20:45;;;;;;;30.93;5.80;;;;;;;;;;5070868;28;20044;-64
2023/01/05 14:23:28;;;;;;;26.43;4.77;;;;;;;;;;5070525;28;20651;-64
2023/01/05 14:25:54;;;;;;;31.77;5.72;;;;;;;;;;5069726;28;20589;-65
2023/01/05 14:28:32;;;;;;;39.37;6.60;;;;;;;;;;5069010;28;20123;-64
2023/01/05 14:31:13;;;;;;;31.23;5.37;;;;;;;;;;5068764;28;20045;-64
2023/01/05 14:33:51;;;;;;;26.20;5.47;;;;;;;;;;5053879;28;20704;-65
2023/01/05 14:36:38;;;;;;;34.30;6.90;;;;;;;;;;5069293;28;20036;-64
2023/01/05 14:39:24;;;;;;;26.63;4.80;;;;;;;;;;5068396;28;20537;-64
2023/01/05 14:42:09;;;;;;;26.47;6.47;;;;;;;;;;5069198;28;20457;-65
2023/01/05 14:44:43;;;;;;;33.50;5.03;;;;;;;;;;5050497;28;20140;-64
2023/01/05 14:47:10;;;;;;;41.47;5.80;;;;;;;;;;5052520;28;20516;-65
2023/01/05 14:49:37;;;;;;;29.17;5.70;;;;;;;;;;5051921;28;20171;-64
2023/01/05 14:52:05;;;;;;;26.77;4.50;;;;;;;;;;5069212;28;20048;-64
2023/01/05 14:54:40;;;;;;;30.43;5.97;;;;;;;;;;5068495;28;20418;-64
2023/01/05 14:57:25;;;;;;;36.13;7.60;;;;;;;;;;5069042;28;20318;-65
2023/01/05 15:00:03;;;;;;;39.83;6.87;;;;;;;;;;5069161;28;20131;-64
2023/01/05 15:02:32;;;;;;;33.67;5.63;;;;;;;;;;5053923;28;20087;-64
2023/01/05 15:05:04;;;;;;;40.63;6.03;;;;;;;;;;5048601;28;20091;-64
2023/01/05 15:07:45;;;;;;;33.67;6.55;;;;;;;;;;5050458;28;20041;-64
2023/01/05 15:10:17;;;;;;;37.07;5.60;;;;;;;;;;5047794;28;20519;-65
2023/01/05 15:12:52;;;;;;;33.17;5.63;;;;;;;;;;5048900;28;20114;-64